Time;durP1;ratioP1;P1;durP2;ratioP2;P2;SDS_P1;SDS_P2;PMS_P1;PMS_P2;Temp;Humidity;BMP_temperature;BMP_pressure;BME280_temperature;BME280_humidity;BME280_pressure;Samples;Min_cycle;Max_cycle;Signal;HPM_P1;HPM_P2
2021/10/15 00:00:46;;;;;;;;;;;;;;;-144.99;96.87;52407.31;5026095;28;19978;-61
2021/10/15 00:03:13;;;;;;;;;;;;;;;-144.99;97.05;52454.22;5029435;28;19993;-61
2021/10/15 00:05:39;;;;;;;;;;;;;;;-144.99;96.82;52446.06;5029699;28;19993;-61
2021/10/15 00:08:05;;;;;;;;;;;;;;;-144.99;97.12;52441.97;5036702;28;19973;-61
2021/10/15 00:10:33;;;;;;;;;;;;;;;-144.99;96.63;52399.19;5030755;28;19973;-60
2021/10/15 00:12:59;;;;;;;;;;;;;;;-144.99;97.40;52423.63;5028595;28;19994;-59
2021/10/15 00:15:26;;;;;;;;;;;;;;;-144.99;97.49;52462.34;5023479;28;19977;-60
2021/10/15 00:17:52;;;;;;;;;;;;;;;-144.99;97.74;52431.78;5028208;28;19977;-60
2021/10/15 00:20:18;;;;;;;;;;;;;;;-144.99;97.49;52417.53;5022083;28;20275;-62
2021/10/15 00:22:45;;;;;;;;;;;;;;;-144.99;97.39;52470.50;5026190;28;20001;-61
2021/10/15 00:25:11;;;;;;;;;;;;;;;-144.99;96.82;52468.47;5025694;28;19953;-63
2021/10/15 00:27:39;;;;;;;;;;;;;;;-144.99;97.15;52452.16;5025543;28;19965;-61
2021/10/15 00:30:06;;;;;;;;;;;;;;;-144.99;97.08;52431.78;5024455;28;19981;-60
2021/10/15 00:32:32;;;;;;;;;;;;;;;-144.99;96.94;52468.47;5025044;28;19990;-60
2021/10/15 00:34:58;;;;;;;;;;;;;;;-144.99;96.73;52427.72;5027549;28;19974;-60
2021/10/15 00:37:25;;;;;;;;;;;;;;;-144.99;96.72;52444.03;5025017;28;20072;-61
2021/10/15 00:39:51;;;;;;;;;;;;;;;-144.99;96.57;52415.47;5025839;28;20012;-60
2021/10/15 00:42:17;;;;;;;;;;;;;;;-144.99;95.96;52419.56;5024492;28;20001;-63
2021/10/15 00:44:45;;;;;;;;;;;;;;;-144.99;95.75;52431.78;5024432;28;19985;-62
2021/10/15 00:47:11;;;;;;;;;;;;;;;-144.99;96.13;52435.88;5025908;28;19989;-61
2021/10/15 00:49:38;;;;;;;;;;;;;;;-144.99;95.96;52415.47;5029789;28;20001;-68
2021/10/15 00:52:07;;;;;;;;;;;;;;;-144.99;95.64;52427.72;5030945;28;20088;-69
2021/10/15 00:54:34;;;;;;;;;;;;;;;-144.99;95.58;52427.72;5033143;28;19996;-69
2021/10/15 00:57:00;;;;;;;;;;;;;;;-144.99;95.58;52468.47;5036055;28;20354;-69
2021/10/15 00:59:26;;;;;;;;;;;;;;;-144.99;95.66;52431.78;5027704;28;20076;-70
2021/10/15 01:01:54;;;;;;;;;;;;;;;-144.99;95.39;52415.47;5024545;28;20004;-69
2021/10/15 01:04:20;;;;;;;;;;;;;;;-144.99;95.72;52427.72;5028011;28;20100;-69
2021/10/15 01:06:47;;;;;;;;;;;;;;;-144.99;95.37;52427.72;5029611;28;19989;-68
2021/10/15 01:09:13;;;;;;;;;;;;;;;-144.99;95.82;52509.25;5030340;28;19997;-68
2021/10/15 01:11:40;;;;;;;;;;;;;;;-144.99;95.27;52431.78;5020812;28;20001;-68
2021/10/15 01:14:07;;;;;;;;;;;;;;;-144.99;95.41;52419.56;5025467;28;20443;-71
2021/10/15 01:16:34;;;;;;;;;;;;;;;-144.99;94.90;52439.94;5022024;28;19980;-71
2021/10/15 01:19:03;;;;;;;;;;;;;;;-144.99;94.92;52439.94;5022208;28;19978;-70
2021/10/15 01:21:31;;;;;;;;;;;;;;;-144.99;94.37;52417.53;5023907;28;20208;-67
2021/10/15 01:23:57;;;;;;;;;;;;;;;-144.99;94.50;52460.31;5023934;28;19989;-69
2021/10/15 01:26:23;;;;;;;;;;;;;;;-144.99;94.63;52441.97;5025621;28;20004;-70
2021/10/15 01:28:51;;;;;;;;;;;;;;;-144.99;94.60;52452.16;5025525;28;19977;-69
2021/10/15 01:31:18;;;;;;;;;;;;;;;-144.99;94.28;52444.03;5024443;28;20004;-68
2021/10/15 01:33:44;;;;;;;;;;;;;;;-144.99;94.43;52480.72;5024414;28;20513;-69
2021/10/15 01:36:10;;;;;;;;;;;;;;;-144.99;94.64;52476.63;5022574;28;20107;-65
2021/10/15 01:38:38;;;;;;;;;;;;;;;-144.99;95.25;52411.41;5025496;28;20022;-64
2021/10/15 01:41:04;;;;;;;;;;;;;;;-144.99;95.49;52433.81;5025403;28;19985;-61
2021/10/15 01:43:31;;;;;;;;;;;;;;;-144.99;95.75;52397.13;5023831;28;19994;-64
2021/10/15 01:45:58;;;;;;;;;;;;;;;-144.99;95.87;52399.19;5022802;28;19997;-64
2021/10/15 01:48:24;;;;;;;;;;;;;;;-144.99;96.19;52413.44;5024687;28;20445;-64
2021/10/15 01:50:51;;;;;;;;;;;;;;;-144.99;95.90;52423.63;5021296;28;20076;-63
2021/10/15 01:53:17;;;;;;;;;;;;;;;-144.99;96.50;52419.56;5026381;28;20092;-63
2021/10/15 01:55:45;;;;;;;;;;;;;;;-144.99;97.01;52431.78;5024924;28;19932;-63
2021/10/15 01:58:12;;;;;;;;;;;;;;;-144.99;96.71;52415.47;5022264;28;19974;-64
2021/10/15 02:00:38;;;;;;;;;;;;;;;-144.99;96.77;52437.91;5026706;28;19973;-63
2021/10/15 02:03:05;;;;;;;;;;;;;;;-144.99;97.65;52427.72;5032350;28;20311;-64
2021/10/15 02:05:32;;;;;;;;;;;;;;;-144.99;96.94;52464.41;5036045;28;20343;-63
2021/10/15 02:07:58;;;;;;;;;;;;;;;-144.99;96.85;52456.25;5028189;28;19965;-63
2021/10/15 02:10:25;;;;;;;;;;;;;;;-144.99;97.36;52407.31;5034907;28;20038;-63
2021/10/15 02:12:53;;;;;;;;;;;;;;;-144.99;97.12;52441.97;5031830;28;19997;-64
2021/10/15 02:15:19;;;;;;;;;;;;;;;-144.99;97.12;52435.88;5029579;28;19986;-64
2021/10/15 02:17:46;;;;;;;;;;;;;;;-144.99;96.58;52444.03;5025967;28;20189;-64
2021/10/15 02:20:13;;;;;;;;;;;;;;;-144.99;96.99;52439.94;5028543;28;19977;-63
2021/10/15 02:22:40;;;;;;;;;;;;;;;-144.99;97.08;52429.75;5027920;28;20024;-63
2021/10/15 02:25:07;;;;;;;;;;;;;;;-144.99;97.01;52448.09;5024515;28;19974;-63
2021/10/15 02:27:33;;;;;;;;;;;;;;;-144.99;97.04;52444.03;5025296;28;20731;-64
2021/10/15 02:30:01;;;;;;;;;;;;;;;-144.99;96.91;52439.94;5027880;28;19978;-63
2021/10/15 02:32:28;;;;;;;;;;;;;;;-144.99;96.71;52460.31;5028299;28;19989;-64
2021/10/15 02:34:54;;;;;;;;;;;;;;;-144.99;96.98;52399.19;5030878;28;19983;-63
2021/10/15 02:37:20;;;;;;;;;;;;;;;-144.99;97.06;52431.78;5026858;28;19989;-63
2021/10/15 02:39:47;;;;;;;;;;;;;;;-144.99;97.08;52423.63;5029433;28;20346;-59
2021/10/15 02:42:13;;;;;;;;;;;;;;;-144.99;97.86;52456.25;5028109;28;20000;-60
2021/10/15 02:44:39;;;;;;;;;;;;;;;-144.99;97.62;52431.78;5027308;28;20393;-61
2021/10/15 02:47:07;;;;;;;;;;;;;;;-144.99;97.74;52423.63;5027787;28;19989;-60
2021/10/15 02:49:33;;;;;;;;;;;;;;;-144.99;97.67;52448.09;5026133;28;19978;-60
2021/10/15 02:52:00;;;;;;;;;;;;;;;-144.99;97.58;52435.88;5026046;28;19997;-59
2021/10/15 02:54:26;;;;;;;;;;;;;;;-144.99;97.38;52468.47;5027750;28;19974;-61
2021/10/15 02:56:52;;;;;;;;;;;;;;;-144.99;97.43;52429.75;5027017;28;19978;-62
2021/10/15 02:59:19;;;;;;;;;;;;;;;-144.99;97.51;52448.09;5026130;28;20471;-62
2021/10/15 03:01:45;;;;;;;;;;;;;;;-144.99;97.69;52431.78;5026767;28;19989;-62
2021/10/15 03:04:13;;;;;;;;;;;;;;;-144.99;97.46;52435.88;5026816;28;19977;-59
2021/10/15 03:06:39;;;;;;;;;;;;;;;-144.99;97.48;52419.56;5023332;28;20021;-59
2021/10/15 03:09:06;;;;;;;;;;;;;;;-144.99;97.33;52419.56;5025003;28;19980;-61
2021/10/15 03:11:33;;;;;;;;;;;;;;;-144.99;97.21;52448.09;5023500;28;19989;-60
2021/10/15 03:13:59;;;;;;;;;;;;;;;-144.99;97.14;52431.78;5026345;28;19973;-60
2021/10/15 03:16:25;;;;;;;;;;;;;;;-144.99;97.43;52484.78;5027636;28;20005;-60
2021/10/15 03:18:52;;;;;;;;;;;;;;;-144.99;97.64;52435.88;5029948;28;19978;-60
2021/10/15 03:21:19;;;;;;;;;;;;;;;-144.99;97.99;52407.31;5025445;28;19974;-60
2021/10/15 03:23:46;;;;;;;;;;;;;;;-144.99;97.55;52444.03;5028563;28;19977;-60
2021/10/15 03:26:12;;;;;;;;;;;;;;;-144.99;97.85;52444.03;5026541;28;19977;-60
2021/10/15 03:28:41;;;;;;;;;;;;;;;-144.99;97.74;52452.16;5027377;28;20136;-60
2021/10/15 03:31:08;;;;;;;;;;;;;;;-144.99;97.90;52464.41;5025314;28;20315;-59
2021/10/15 03:33:34;;;;;;;;;;;;;;;-144.99;98.40;52452.16;5027816;28;19981;-59
2021/10/15 03:36:00;;;;;;;;;;;;;;;-144.99;98.14;52433.81;5029571;28;20429;-59
2021/10/15 03:38:28;;;;;;;;;;;;;;;-144.99;97.68;52448.09;5026166;28;19994;-59
2021/10/15 03:40:55;;;;;;;;;;;;;;;-144.99;98.18;52435.88;5020955;28;19981;-59
2021/10/15 03:43:21;;;;;;;;;;;;;;;-144.99;97.60;52435.88;5023000;28;19996;-59
2021/10/15 03:45:47;;;;;;;;;;;;;;;-144.99;97.62;52435.88;5024133;28;20458;-59
2021/10/15 03:48:14;;;;;;;;;;;;;;;-144.99;97.51;52435.88;5027599;28;19993;-60
2021/10/15 03:50:40;;;;;;;;;;;;;;;-144.99;97.67;52452.16;5026238;28;20346;-60
2021/10/15 03:53:07;;;;;;;;;;;;;;;-144.99;97.91;52423.63;5025364;28;20061;-60
2021/10/15 03:55:35;;;;;;;;;;;;;;;-144.99;97.81;52419.56;5026623;28;20439;-61
2021/10/15 03:58:01;;;;;;;;;;;;;;;-144.99;97.66;52435.88;5026183;28;20533;-62
2021/10/15 04:00:28;;;;;;;;;;;;;;;-144.99;98.06;52464.41;5026640;28;20248;-61
2021/10/15 04:02:54;;;;;;;;;;;;;;;-144.99;97.83;52419.56;5027536;28;19997;-61
2021/10/15 04:05:20;;;;;;;;;;;;;;;-144.99;97.38;52395.09;5030581;28;19973;-62
2021/10/15 04:07:47;;;;;;;;;;;;;;;-144.99;97.03;52435.88;5034513;28;19944;-62
2021/10/15 04:10:13;;;;;;;;;;;;;;;-144.99;96.43;52423.63;5025464;28;20059;-62
2021/10/15 04:12:41;;;;;;;;;;;;;;;-144.99;96.51;52460.31;5025300;28;19998;-63
2021/10/15 04:15:08;;;;;;;;;;;;;;;-144.99;95.77;52439.94;5023853;28;19997;-63
2021/10/15 04:17:35;;;;;;;;;;;;;;;-144.99;95.46;52446.06;5027149;28;19974;-63
2021/10/15 04:20:01;;;;;;;;;;;;;;;-144.99;95.52;52431.78;5024914;28;19981;-64
2021/10/15 04:22:27;;;;;;;;;;;;;;;-144.99;95.07;52413.44;5028505;28;19990;-64
2021/10/15 04:24:54;;;;;;;;;;;;;;;-144.99;94.52;52431.78;5023484;28;20476;-63
2021/10/15 04:27:22;;;;;;;;;;;;;;;-144.99;94.45;52448.09;5040359;22;20001;-63
2021/10/15 04:29:49;;;;;;;;;;;;;;;-144.99;94.62;52419.56;5026343;28;20345;-63
2021/10/15 04:32:16;;;;;;;;;;;;;;;-144.99;94.21;52425.66;5026448;28;20734;-63
2021/10/15 04:34:42;;;;;;;;;;;;;;;-144.99;94.36;52437.91;5024051;28;19973;-62
2021/10/15 04:37:09;;;;;;;;;;;;;;;-144.99;94.08;52446.06;5025578;28;19974;-63
2021/10/15 04:39:35;;;;;;;;;;;;;;;-144.99;93.44;52399.19;5024332;28;19997;-65
2021/10/15 04:42:01;;;;;;;;;;;;;;;-144.99;93.45;52439.94;5024757;28;20267;-65
2021/10/15 04:44:28;;;;;;;;;;;;;;;-144.99;93.39;52452.16;5026838;28;19925;-65
2021/10/15 04:46:55;;;;;;;;;;;;;;;-144.99;93.48;52472.56;5023180;28;20393;-64
2021/10/15 04:49:22;;;;;;;;;;;;;;;-144.99;93.95;52437.91;5026012;28;19973;-70
2021/10/15 04:51:48;;;;;;;;;;;;;;;-144.99;94.14;52403.25;5020482;28;19998;-68
2021/10/15 04:54:15;;;;;;;;;;;;;;;-144.99;93.88;52448.09;5024985;28;19981;-60
2021/10/15 04:56:41;;;;;;;;;;;;;;;-144.99;94.28;52444.03;5022818;28;19980;-60
2021/10/15 04:59:07;;;;;;;;;;;;;;;-144.99;94.04;52431.78;5025993;28;19985;-61
2021/10/15 05:01:34;;;;;;;;;;;;;;;-144.99;94.20;52448.09;5023640;28;21583;-62
2021/10/15 05:04:01;;;;;;;;;;;;;;;-144.99;94.40;52419.56;5026103;28;19986;-62
2021/10/15 05:06:28;;;;;;;;;;;;;;;-144.99;94.27;52452.16;5021806;28;19978;-62
2021/10/15 05:09:02;;;;;;;;;;;;;;;-144.99;94.60;52391.03;5026157;28;19978;-63
2021/10/15 05:11:29;;;;;;;;;;;;;;;-144.99;94.87;52437.91;5023943;28;19993;-62
2021/10/15 05:13:56;;;;;;;;;;;;;;;-144.99;94.97;52431.78;5025890;28;19977;-60
2021/10/15 05:16:22;;;;;;;;;;;;;;;-144.99;95.34;52407.31;5027623;28;19981;-61
2021/10/15 05:18:48;;;;;;;;;;;;;;;-144.99;96.08;52446.06;5024501;28;19974;-60
2021/10/15 05:21:16;;;;;;;;;;;;;;;-144.99;96.04;52454.22;5028960;28;20384;-58
2021/10/15 05:23:43;;;;;;;;;;;;;;;-144.99;97.07;52439.94;5028683;28;19981;-58
2021/10/15 05:26:09;;;;;;;;;;;;;;;-144.99;97.01;52456.25;5026030;28;19980;-59
2021/10/15 05:28:35;;;;;;;;;;;;;;;-144.99;98.26;52417.53;5023610;28;20446;-60
2021/10/15 05:31:02;;;;;;;;;;;;;;;-144.99;100.00;52460.31;5026331;28;19980;-60
2021/10/15 05:33:28;;;;;;;;;;;;;;;-144.99;100.00;52452.16;5027053;28;19973;-64
2021/10/15 05:35:56;;;;;;;;;;;;;;;-144.99;100.00;52452.16;5030076;28;19939;-66
2021/10/15 05:38:24;;;;;;;;;;;;;;;-144.99;100.00;52454.22;5029402;28;19978;-66
2021/10/15 05:40:51;;;;;;;;;;;;;;;-144.99;100.00;52419.56;5033301;28;19993;-66
2021/10/15 05:43:17;;;;;;;;;;;;;;;-144.99;100.00;52423.63;5032199;28;19996;-66
2021/10/15 05:45:43;;;;;;;;;;;;;;;-144.99;100.00;52460.31;5030070;28;19977;-65
2021/10/15 05:48:10;;;;;;;;;;;;;;;-144.99;100.00;52435.88;5029425;28;20458;-65
2021/10/15 05:50:36;;;;;;;;;;;;;;;-144.99;100.00;52452.16;5027040;28;20065;-67
2021/10/15 05:53:07;;;;;;;;;;;;;;;-144.99;100.00;52464.41;5029824;28;20059;-68
2021/10/15 05:55:40;;;;;;;;;;;;;;;-144.99;100.00;52460.31;5030381;28;19977;-67
2021/10/15 06:00:47;;;;;;;;;;;;;;;-144.99;100.00;52403.25;5027259;28;20360;-67
2021/10/15 06:03:14;;;;;;;;;;;;;;;-144.99;100.00;52452.16;5032741;28;20005;-67
2021/10/15 06:16:51;;;;;;;;;;;;;;;-144.99;100.00;52419.56;5027795;28;19980;-71
2021/10/15 06:19:19;;;;;;;;;;;;;;;-144.99;100.00;52480.72;5036503;28;20341;-73
2021/10/15 06:21:46;;;;;;;;;;;;;;;-144.99;100.00;52452.16;5033920;28;20457;-73
2021/10/15 06:24:12;;;;;;;;;;;;;;;-144.99;100.00;52464.41;5030527;28;19966;-74
2021/10/15 06:26:40;;;;;;;;;;;;;;;-144.99;100.00;52431.78;5033358;28;19989;-75
2021/10/15 06:29:07;;;;;;;;;;;;;;;-144.99;100.00;52452.16;5026046;28;19998;-73
2021/10/15 06:31:33;;;;;;;;;;;;;;;-144.99;100.00;52501.09;5027608;28;20349;-72
2021/10/15 06:34:00;;;;;;;;;;;;;;;-144.99;100.00;52472.56;5032613;28;19993;-74
2021/10/15 06:36:26;;;;;;;;;;;;;;;-144.99;100.00;52480.72;5035972;28;19984;-75
2021/10/15 06:38:52;;;;;;;;;;;;;;;-144.99;100.00;52423.63;5033296;28;19985;-72
2021/10/15 06:41:19;;;;;;;;;;;;;;;-144.99;100.00;52476.63;5033123;28;20004;-72
2021/10/15 06:43:47;;;;;;;;;;;;;;;-144.99;100.00;52441.97;5033650;28;19981;-72
2021/10/15 06:46:13;;;;;;;;;;;;;;;-144.99;100.00;52460.31;5032261;28;20068;-73
2021/10/15 06:48:40;;;;;;;;;;;;;;;-144.99;100.00;52448.09;5032483;28;19997;-72
2021/10/15 06:51:08;;;;;;;;;;;;;;;-144.99;100.00;52488.84;5032011;28;20417;-72
2021/10/15 06:53:34;;;;;;;;;;;;;;;-144.99;100.00;52464.41;5032423;28;19989;-71
2021/10/15 06:56:01;;;;;;;;;;;;;;;-144.99;100.00;52472.56;5032167;28;19989;-71
2021/10/15 06:58:28;;;;;;;;;;;;;;;-144.99;100.00;52452.16;5032388;28;20338;-71
2021/10/15 07:00:56;;;;;;;;;;;;;;;-144.99;100.00;52472.56;5031851;28;19984;-73
2021/10/15 07:03:22;;;;;;;;;;;;;;;-144.99;100.00;52452.16;5038060;28;20005;-68
2021/10/15 07:05:49;;;;;;;;;;;;;;;-144.99;100.00;52497.00;5045504;28;19964;-67
2021/10/15 07:08:15;;;;;;;;;;;;;;;-144.99;100.00;52456.25;5032276;28;20003;-68
2021/10/15 07:10:41;;;;;;;;;;;;;;;-144.99;100.00;52476.63;5034663;28;20056;-68
2021/10/15 07:13:08;;;;;;;;;;;;;;;-144.99;100.00;52452.16;5031395;28;19997;-68
2021/10/15 07:15:34;;;;;;;;;;;;;;;-144.99;100.00;52441.97;5031488;28;19989;-67
2021/10/15 07:18:03;;;;;;;;;;;;;;;-144.99;100.00;52470.50;5031596;28;19981;-67
2021/10/15 07:20:30;;;;;;;;;;;;;;;-144.99;100.00;52476.63;5030969;28;20076;-68
2021/10/15 07:22:56;;;;;;;;;;;;;;;-144.99;100.00;52501.09;5031104;28;20457;-66
2021/10/15 07:25:23;;;;;;;;;;;;;;;-144.99;100.00;52456.25;5031173;28;20077;-67
2021/10/15 07:27:50;;;;;;;;;;;;;;;-144.99;100.00;52484.78;5030875;28;20001;-68
2021/10/15 07:30:16;;;;;;;;;;;;;;;-144.99;100.00;52460.31;5031556;28;20044;-68
2021/10/15 07:32:42;;;;;;;;;;;;;;;-144.99;100.00;52460.31;5031232;28;19998;-68
2021/10/15 07:35:10;;;;;;;;;;;;;;;-144.99;100.00;52478.66;5033866;28;20365;-68
2021/10/15 07:37:37;;;;;;;;;;;;;;;-144.99;100.00;52448.09;5031394;28;20026;-67
2021/10/15 07:40:04;;;;;;;;;;;;;;;-144.99;100.00;52456.25;5030992;28;19989;-67
2021/10/15 07:42:30;;;;;;;;;;;;;;;-144.99;100.00;52472.56;5030891;28;20406;-68
2021/10/15 07:44:56;;;;;;;;;;;;;;;-144.99;100.00;52464.41;5038628;28;20235;-68
2021/10/15 07:47:23;;;;;;;;;;;;;;;-144.99;100.00;52480.72;5037188;28;19984;-68
2021/10/15 07:49:49;;;;;;;;;;;;;;;-144.99;100.00;52464.41;5033164;28;19985;-68
2021/10/15 07:52:21;;;;;;;;;;;;;;;-144.99;100.00;52474.59;5036362;28;20159;-68
2021/10/15 07:54:47;;;;;;;;;;;;;;;-144.99;100.00;52468.47;5038767;28;19973;-68
2021/10/15 07:57:13;;;;;;;;;;;;;;;-144.99;100.00;52452.16;5030314;28;20137;-68
2021/10/15 07:59:40;;;;;;;;;;;;;;;-144.99;100.00;52444.03;5030583;28;19985;-68
2021/10/15 08:02:07;;;;;;;;;;;;;;;-144.99;100.00;52480.72;5030432;28;20382;-68
2021/10/15 08:04:35;;;;;;;;;;;;;;;-144.99;100.00;52407.31;5032210;28;20135;-68
2021/10/15 08:07:02;;;;;;;;;;;;;;;-144.99;100.00;52509.25;5032294;28;19982;-68
2021/10/15 08:09:29;;;;;;;;;;;;;;;-144.99;100.00;52468.47;5031601;28;20470;-69
2021/10/15 08:11:56;;;;;;;;;;;;;;;-144.99;100.00;52458.28;5033299;28;19998;-68
2021/10/15 08:14:22;;;;;;;;;;;;;;;-144.99;100.00;52497.00;5030306;28;19981;-68
2021/10/15 08:16:49;;;;;;;;;;;;;;;-144.99;100.00;52444.03;5031686;28;20007;-68
2021/10/15 08:19:16;;;;;;;;;;;;;;;-144.99;100.00;52435.88;5030877;28;19986;-68
2021/10/15 08:21:42;;;;;;;;;;;;;;;-144.99;100.00;52478.66;5030759;28;20001;-69
2021/10/15 08:24:09;;;;;;;;;;;;;;;-144.99;100.00;52452.16;5031706;28;20004;-69
2021/10/15 08:26:37;;;;;;;;;;;;;;;-144.99;100.00;52439.94;5041850;28;19974;-69
2021/10/15 08:29:03;;;;;;;;;;;;;;;-144.99;100.00;52484.78;5031038;28;19997;-68
2021/10/15 08:31:30;;;;;;;;;;;;;;;-144.99;100.00;52474.59;5031127;28;20016;-68
2021/10/15 08:33:57;;;;;;;;;;;;;;;-144.99;100.00;52472.56;5030419;28;20004;-68
2021/10/15 08:36:23;;;;;;;;;;;;;;;-144.99;100.00;52454.22;5032930;28;20064;-68
2021/10/15 08:38:50;;;;;;;;;;;;;;;-144.99;100.00;52444.03;5030340;28;20459;-68
2021/10/15 08:41:19;;;;;;;;;;;;;;;-144.99;100.00;52427.72;5029692;28;20064;-68
2021/10/15 08:43:47;;;;;;;;;;;;;;;-144.99;100.00;52456.25;5031083;28;20397;-68
2021/10/15 08:46:13;;;;;;;;;;;;;;;-144.99;100.00;52456.25;5041535;28;19980;-68
2021/10/15 08:48:40;;;;;;;;;;;;;;;-144.99;100.00;52427.72;5031197;28;20004;-69
2021/10/15 08:51:07;;;;;;;;;;;;;;;-144.99;100.00;52488.84;5030084;28;20849;-70
2021/10/15 08:53:44;;;;;;;;;;;;;;;-144.99;100.00;52456.25;5030111;28;20029;-68
2021/10/15 08:56:10;;;;;;;;;;;;;;;-144.99;100.00;52423.63;5029474;28;20005;-69
2021/10/15 08:58:41;;;;;;;;;;;;;;;-144.99;100.00;52437.91;5030215;28;20000;-69
2021/10/15 09:01:09;;;;;;;;;;;;;;;-144.99;100.00;52446.06;5029566;28;20397;-70
2021/10/15 09:03:35;;;;;;;;;;;;;;;-144.99;100.00;52441.97;5035567;28;20060;-70
2021/10/15 09:06:03;;;;;;;;;;;;;;;-144.99;100.00;52437.91;5034731;28;19982;-70
2021/10/15 09:08:48;;;;;;;;;;;;;;;-144.99;100.00;52452.16;5029706;28;20005;-70
2021/10/15 09:11:27;;;;;;;;;;;;;;;-144.99;100.00;52441.97;5032141;28;20345;-71
2021/10/15 09:14:03;;;;;;;;;;;;;;;-144.99;100.00;52450.13;5029113;28;19981;-71
2021/10/15 09:16:50;;;;;;;;;;;;;;;-144.99;100.00;52386.94;5029789;28;19981;-71
2021/10/15 09:19:21;;;;;;;;;;;;;;;-144.99;100.00;52423.63;5029402;28;19986;-69
2021/10/15 09:22:02;;;;;;;;;;;;;;;-144.99;100.00;52407.31;5029403;28;20355;-69
2021/10/15 09:24:33;;;;;;;;;;;;;;;-144.99;100.00;52419.56;5028093;28;20399;-70
2021/10/15 09:27:10;;;;;;;;;;;;;;;-144.99;100.00;52419.56;5028919;28;20008;-70
2021/10/15 09:29:40;;;;;;;;;;;;;;;-144.99;100.00;52419.56;5029398;28;20123;-70
2021/10/15 09:32:08;;;;;;;;;;;;;;;-144.99;100.00;52425.66;5029300;28;19997;-70
2021/10/15 09:34:35;;;;;;;;;;;;;;;-144.99;99.70;52480.72;5030802;28;19981;-70
2021/10/15 09:37:01;;;;;;;;;;;;;;;-144.99;100.00;52395.09;5029988;28;19989;-70
2021/10/15 09:39:27;;;;;;;;;;;;;;;-144.99;100.00;52397.13;5029634;28;19982;-70
2021/10/15 09:41:54;;;;;;;;;;;;;;;-144.99;94.49;52391.03;5029116;28;20009;-71
2021/10/15 09:44:31;;;;;;;;;;;;;;;-144.99;89.97;52340.06;5035445;28;19973;-71
2021/10/15 09:47:15;;;;;;;;;;;;;;;-144.99;87.16;52305.41;5035102;28;19997;-71
2021/10/15 09:49:52;;;;;;;;;;;;;;;-144.99;79.45;52293.19;5029834;28;20024;-71
2021/10/15 09:52:32;;;;;;;;;;;;;;;-144.99;72.15;52280.97;5033005;28;19996;-72
2021/10/15 09:54:59;;;;;;;;;;;;;;;-144.99;69.00;52264.66;5035014;28;20068;-71
2021/10/15 09:57:31;;;;;;;;;;;;;;;-144.99;61.81;52252.44;5028663;28;20457;-71
2021/10/15 09:59:57;;;;;;;;;;;;;;;-144.99;58.95;52236.13;5029456;28;20347;-71
2021/10/15 10:02:25;;;;;;;;;;;;;;;-144.99;55.41;52236.13;5029414;28;19993;-70
2021/10/15 10:04:52;;;;;;;;;;;;;;;-144.99;54.17;52203.50;5015887;28;19982;-71
2021/10/15 10:07:19;;;;;;;;;;;;;;;-144.99;52.16;52174.97;5029317;28;19995;-71
2021/10/15 10:09:46;;;;;;;;;;;;;;;-144.99;48.53;52166.81;5029816;28;20025;-70
2021/10/15 10:21:26;;;;;;;;;;;;;;;-144.99;43.92;52130.13;5028837;28;20468;-71
2021/10/15 10:23:56;;;;;;;;;;;;;;;-144.99;42.65;52101.59;5029710;28;20231;-72
2021/10/15 10:26:23;;;;;;;;;;;;;;;-144.99;44.76;52174.97;5042719;28;20003;-73
2021/10/15 10:28:59;;;;;;;;;;;;;;;-144.99;44.95;52158.66;5033527;28;20379;-71
2021/10/15 10:31:25;;;;;;;;;;;;;;;-144.99;45.30;52130.13;5062988;22;20002;-72
2021/10/15 10:33:53;;;;;;;;;;;;;;;-144.99;43.73;52111.78;5047371;28;19977;-73
2021/10/15 10:36:20;;;;;;;;;;;;;;;-144.99;43.62;52146.44;5051569;28;19976;-72
2021/10/15 10:38:51;;;;;;;;;;;;;;;-144.99;44.19;52287.06;5053629;28;19992;-71
2021/10/15 10:41:18;;;;;;;;;;;;;;;-144.99;45.83;52329.88;5053048;28;19984;-72
2021/10/15 10:44:03;;;;;;;;;;;;;;;-144.99;48.10;52384.91;5054050;28;20359;-70
2021/10/15 10:46:30;;;;;;;;;;;;;;;-144.99;51.01;52403.25;5062498;28;19980;-71
2021/10/15 10:49:15;;;;;;;;;;;;;;;-144.99;52.29;52435.88;5052556;28;20533;-71
2021/10/15 10:51:41;;;;;;;;;;;;;;;-144.99;52.03;52250.38;5052524;28;19993;-70
2021/10/15 10:54:27;;;;;;;;;;;;;;;-144.99;49.56;52205.53;5053665;28;19980;-71
2021/10/15 10:56:53;;;;;;;;;;;;;;;-144.99;46.72;52150.53;5040213;28;20008;-69
2021/10/15 10:59:29;;;;;;;;;;;;;;;-144.99;44.29;52093.44;5053118;28;19988;-72
2021/10/15 11:01:58;;;;;;;;;;;;;;;-144.99;42.00;52093.44;5054214;28;20447;-71
2021/10/15 11:04:28;;;;;;;;;;;;;;;-144.99;40.89;52081.22;5051186;28;20350;-71
2021/10/15 11:06:57;;;;;;;;;;;;;;;-144.99;40.69;52075.09;5060589;28;19925;-72
2021/10/15 11:09:29;;;;;;;;;;;;;;;-144.99;41.14;52219.81;5052159;28;20051;-69
2021/10/15 11:11:56;;;;;;;;;;;;;;;-144.99;42.60;52105.69;5054788;28;20542;-70
2021/10/15 11:14:37;;;;;;;;;;;;;;;-144.99;42.70;52297.25;5052088;28;19963;-70
2021/10/15 11:17:08;;;;;;;;;;;;;;;-144.99;43.89;52162.75;5038767;28;19988;-70
2021/10/15 11:19:35;;;;;;;;;;;;;;;-144.99;42.59;52121.97;5051967;28;19977;-71
2021/10/15 11:22:02;;;;;;;;;;;;;;;-144.99;41.37;52117.91;5051394;28;20084;-71
2021/10/15 11:24:29;;;;;;;;;;;;;;;-144.99;41.14;52276.88;5043089;28;19977;-71
2021/10/15 11:26:56;;;;;;;;;;;;;;;-144.99;43.14;52348.22;5047079;28;20061;-70
2021/10/15 11:29:22;;;;;;;;;;;;;;;-144.99;44.68;52358.41;5052228;28;20004;-70
2021/10/15 11:31:52;;;;;;;;;;;;;;;-144.99;46.45;52395.09;5051568;28;20008;-71
2021/10/15 11:34:19;;;;;;;;;;;;;;;-144.99;47.75;52429.75;5051748;28;19981;-71
2021/10/15 11:36:45;;;;;;;;;;;;;;;-144.99;49.59;52423.63;5054633;28;19985;-69
2021/10/15 11:39:12;;;;;;;;;;;;;;;-144.99;51.47;52470.50;5052026;28;19981;-69
2021/10/15 11:41:49;;;;;;;;;;;;;;;-144.99;52.13;52458.28;5051208;28;20001;-71
2021/10/15 11:44:16;;;;;;;;;;;;;;;-144.99;52.48;52297.25;5056769;28;20026;-68
2021/10/15 11:46:43;;;;;;;;;;;;;;;-144.99;48.06;52215.75;5059667;28;19973;-69
2021/10/15 11:49:09;;;;;;;;;;;;;;;-144.99;45.56;52181.09;5050914;28;20000;-72
2021/10/15 11:51:35;;;;;;;;;;;;;;;-144.99;42.47;52105.69;5055414;28;19995;-70
2021/10/15 11:54:03;;;;;;;;;;;;;;;-144.99;40.32;52073.06;5048200;28;19985;-70
2021/10/15 11:56:30;;;;;;;;;;;;;;;-144.99;38.82;52081.22;5053499;28;19985;-71
2021/10/15 11:58:59;;;;;;;;;;;;;;;-144.99;37.95;52024.16;5051197;28;19981;-71
2021/10/15 12:01:27;;;;;;;;;;;;;;;-144.99;36.70;52032.31;5050840;28;20004;-70
2021/10/15 12:03:55;;;;;;;;;;;;;;;-144.99;35.99;51956.91;5051330;28;20416;-71
2021/10/15 12:06:26;;;;;;;;;;;;;;;-144.99;35.95;52022.13;5051247;28;19988;-71
2021/10/15 12:08:54;;;;;;;;;;;;;;;-144.99;36.61;52081.22;5051627;28;19987;-71
2021/10/15 12:11:25;;;;;;;;;;;;;;;-144.99;36.57;52211.66;5044352;28;19978;-71
2021/10/15 12:13:52;;;;;;;;;;;;;;;-144.99;37.07;52097.53;5051323;28;19981;-72
2021/10/15 12:16:21;;;;;;;;;;;;;;;-144.99;37.05;52191.28;5051232;28;19993;-71
2021/10/15 12:18:55;;;;;;;;;;;;;;;-144.99;36.38;52095.50;5051338;28;19981;-71
2021/10/15 12:21:29;;;;;;;;;;;;;;;-144.99;37.19;52069.00;5040792;28;20416;-72
2021/10/15 12:23:55;;;;;;;;;;;;;;;-144.99;37.84;52236.13;5050887;28;19984;-71
2021/10/15 12:26:23;;;;;;;;;;;;;;;-144.99;39.48;52183.13;5065143;28;20153;-71
2021/10/15 12:28:50;;;;;;;;;;;;;;;-144.99;40.94;52301.34;5052258;28;19996;-69
2021/10/15 12:31:24;;;;;;;;;;;;;;;-144.99;45.42;52350.25;5050907;28;19984;-70
2021/10/15 12:34:05;;;;;;;;;;;;;;;-144.99;48.47;52354.34;5050804;28;20375;-70
2021/10/15 12:36:31;;;;;;;;;;;;;;;-144.99;49.49;52403.25;5052453;28;19984;-69
2021/10/15 12:39:16;;;;;;;;;;;;;;;-144.99;51.21;52403.25;5050971;28;19981;-69
2021/10/15 12:41:43;;;;;;;;;;;;;;;-144.99;50.97;52413.44;5050592;28;19997;-70
2021/10/15 12:44:23;;;;;;;;;;;;;;;-144.99;50.27;52232.03;5054902;28;20211;-70
2021/10/15 12:47:01;;;;;;;;;;;;;;;-144.99;46.71;52223.88;5058392;28;19981;-71
2021/10/15 12:49:27;;;;;;;;;;;;;;;-144.99;45.70;52191.28;5050658;28;20003;-72